sensor_id;sensor_type;location;lat;lon;timestamp;pressure;altitude;pressure_sealevel;temperature;humidity
37142;BME280;23041;49.816;20.092;2022-08-19T00:01:57;97226.32;;;20.23;64.30
37142;BME280;23041;49.816;20.092;2022-08-19T00:04:27;97220.48;;;20.21;64.38
37142;BME280;23041;49.816;20.092;2022-08-19T00:06:56;97223.66;;;20.18;64.42
37142;BME280;23041;49.816;20.092;2022-08-19T00:09:23;97236.84;;;20.23;64.34
37142;BME280;23041;49.816;20.092;2022-08-19T00:11:52;97235.44;;;20.18;64.45
37142;BME280;23041;49.816;20.092;2022-08-19T00:14:21;97236.33;;;20.19;64.44
37142;BME280;23041;49.816;20.092;2022-08-19T00:16:48;97232.65;;;20.18;64.51
37142;BME280;23041;49.816;20.092;2022-08-19T00:19:17;97238.22;;;20.18;64.55
37142;BME280;23041;49.816;20.092;2022-08-19T00:21:43;97236.13;;;19.96;64.57
37142;BME280;23041;49.816;20.092;2022-08-19T00:24:12;97236.88;;;19.91;64.68
37142;BME280;23041;49.816;20.092;2022-08-19T00:26:41;97234.98;;;19.87;65.17
37142;BME280;23041;49.816;20.092;2022-08-19T00:29:10;97242.59;;;19.92;64.81
37142;BME280;23041;49.816;20.092;2022-08-19T00:31:37;97242.44;;;19.85;64.84
37142;BME280;23041;49.816;20.092;2022-08-19T00:34:04;97241.31;;;19.87;64.87
37142;BME280;23041;49.816;20.092;2022-08-19T00:36:30;97239.56;;;19.90;64.93
37142;BME280;23041;49.816;20.092;2022-08-19T00:38:59;97235.27;;;19.94;65.00
37142;BME280;23041;49.816;20.092;2022-08-19T00:41:25;97231.84;;;19.89;65.04
37142;BME280;23041;49.816;20.092;2022-08-19T00:44:05;97226.13;;;19.88;65.13
37142;BME280;23041;49.816;20.092;2022-08-19T00:46:42;97230.43;;;19.84;64.98
37142;BME280;23041;49.816;20.092;2022-08-19T00:49:16;97236.10;;;19.85;65.19
37142;BME280;23041;49.816;20.092;2022-08-19T00:51:50;97234.97;;;19.81;65.24
37142;BME280;23041;49.816;20.092;2022-08-19T00:54:19;97243.57;;;19.78;65.33
37142;BME280;23041;49.816;20.092;2022-08-19T00:56:47;97231.25;;;19.69;65.21
37142;BME280;23041;49.816;20.092;2022-08-19T00:59:16;97232.93;;;19.76;64.98
37142;BME280;23041;49.816;20.092;2022-08-19T01:01:45;97225.17;;;19.65;65.29
37142;BME280;23041;49.816;20.092;2022-08-19T01:04:12;97223.22;;;19.55;65.17
37142;BME280;23041;49.816;20.092;2022-08-19T01:06:40;97231.95;;;19.52;65.44
37142;BME280;23041;49.816;20.092;2022-08-19T01:09:07;97227.66;;;19.57;65.25
37142;BME280;23041;49.816;20.092;2022-08-19T01:11:38;97227.66;;;19.57;65.25
37142;BME280;23041;49.816;20.092;2022-08-19T01:14:07;97232.02;;;19.42;65.71
37142;BME280;23041;49.816;20.092;2022-08-19T01:16:35;97232.02;;;19.42;65.71
37142;BME280;23041;49.816;20.092;2022-08-19T01:19:09;97231.09;;;19.35;65.53
37142;BME280;23041;49.816;20.092;2022-08-19T01:21:40;97220.27;;;19.22;65.77
37142;BME280;23041;49.816;20.092;2022-08-19T01:24:08;97208.72;;;19.18;65.93
37142;BME280;23041;49.816;20.092;2022-08-19T01:26:40;97216.23;;;19.23;65.87
37142;BME280;23041;49.816;20.092;2022-08-19T01:29:09;97216.23;;;19.23;65.87
37142;BME280;23041;49.816;20.092;2022-08-19T01:31:36;97210.25;;;19.20;65.96
37142;BME280;23041;49.816;20.092;2022-08-19T01:34:05;97212.05;;;19.23;66.00
37142;BME280;23041;49.816;20.092;2022-08-19T01:36:37;97216.34;;;19.18;66.14
37142;BME280;23041;49.816;20.092;2022-08-19T01:39:07;97216.34;;;19.18;66.14
37142;BME280;23041;49.816;20.092;2022-08-19T01:41:36;97198.11;;;18.96;66.21
37142;BME280;23041;49.816;20.092;2022-08-19T01:44:04;97198.11;;;18.96;66.21
37142;BME280;23041;49.816;20.092;2022-08-19T01:46:32;97206.97;;;18.94;66.44
37142;BME280;23041;49.816;20.092;2022-08-19T01:48:58;97206.97;;;18.94;66.44
37142;BME280;23041;49.816;20.092;2022-08-19T01:51:26;97217.54;;;18.90;66.34
37142;BME280;23041;49.816;20.092;2022-08-19T01:53:54;97214.48;;;18.83;66.40
37142;BME280;23041;49.816;20.092;2022-08-19T01:56:20;97218.76;;;18.84;66.43
37142;BME280;23041;49.816;20.092;2022-08-19T01:58:50;97200.66;;;18.78;66.51
37142;BME280;23041;49.816;20.092;2022-08-19T02:01:19;97201.86;;;18.71;66.59
37142;BME280;23041;49.816;20.092;2022-08-19T02:03:45;97205.55;;;18.73;66.82
37142;BME280;23041;49.816;20.092;2022-08-19T02:06:12;97205.55;;;18.73;66.82
37142;BME280;23041;49.816;20.092;2022-08-19T02:08:39;97205.34;;;18.77;66.78
37142;BME280;23041;49.816;20.092;2022-08-19T02:11:06;97208.50;;;18.80;66.82
37142;BME280;23041;49.816;20.092;2022-08-19T02:13:33;97204.86;;;18.84;66.89
37142;BME280;23041;49.816;20.092;2022-08-19T02:16:00;97203.30;;;18.77;66.90
37142;BME280;23041;49.816;20.092;2022-08-19T02:18:27;97199.19;;;18.67;66.98
37142;BME280;23041;49.816;20.092;2022-08-19T02:20:53;97202.59;;;18.66;67.03
37142;BME280;23041;49.816;20.092;2022-08-19T02:23:20;97198.59;;;18.73;67.07
37142;BME280;23041;49.816;20.092;2022-08-19T02:25:47;97196.20;;;18.70;67.10
37142;BME280;23041;49.816;20.092;2022-08-19T02:28:14;97196.20;;;18.70;67.10
37142;BME280;23041;49.816;20.092;2022-08-19T02:30:41;97190.09;;;18.66;67.12
37142;BME280;23041;49.816;20.092;2022-08-19T02:33:08;97198.08;;;18.69;67.13
37142;BME280;23041;49.816;20.092;2022-08-19T02:35:34;97185.28;;;18.51;67.22
37142;BME280;23041;49.816;20.092;2022-08-19T02:38:01;97185.28;;;18.51;67.22
37142;BME280;23041;49.816;20.092;2022-08-19T02:40:49;97190.70;;;18.50;67.24
37142;BME280;23041;49.816;20.092;2022-08-19T02:43:20;97202.66;;;18.56;67.29
37142;BME280;23041;49.816;20.092;2022-08-19T02:45:47;97198.41;;;18.51;67.26
37142;BME280;23041;49.816;20.092;2022-08-19T02:48:19;97197.79;;;18.51;67.30
37142;BME280;23041;49.816;20.092;2022-08-19T02:50:47;97197.93;;;18.52;67.32
37142;BME280;23041;49.816;20.092;2022-08-19T02:53:17;97195.50;;;18.50;67.34
37142;BME280;23041;49.816;20.092;2022-08-19T02:55:45;97197.24;;;18.31;67.38
37142;BME280;23041;49.816;20.092;2022-08-19T02:58:14;97191.69;;;18.31;67.42
37142;BME280;23041;49.816;20.092;2022-08-19T03:00:43;97195.13;;;18.36;67.50
37142;BME280;23041;49.816;20.092;2022-08-19T03:03:15;97199.20;;;18.41;67.57
37142;BME280;23041;49.816;20.092;2022-08-19T03:05:42;97203.55;;;18.48;67.60
37142;BME280;23041;49.816;20.092;2022-08-19T03:08:11;97206.89;;;18.52;67.66
37142;BME280;23041;49.816;20.092;2022-08-19T03:10:47;97205.28;;;18.40;67.69
37142;BME280;23041;49.816;20.092;2022-08-19T03:13:14;97214.44;;;18.35;67.76
37142;BME280;23041;49.816;20.092;2022-08-19T03:15:42;97218.41;;;18.39;67.82
37142;BME280;23041;49.816;20.092;2022-08-19T03:18:10;97222.82;;;18.41;67.87
37142;BME280;23041;49.816;20.092;2022-08-19T03:20:47;97223.63;;;18.47;67.90
37142;BME280;23041;49.816;20.092;2022-08-19T03:23:11;97225.20;;;18.54;67.92
37142;BME280;23041;49.816;20.092;2022-08-19T03:25:40;97230.30;;;18.55;67.93
37142;BME280;23041;49.816;20.092;2022-08-19T03:28:13;97225.16;;;18.58;67.94
37142;BME280;23041;49.816;20.092;2022-08-19T03:30:41;97232.11;;;18.58;67.95
37142;BME280;23041;49.816;20.092;2022-08-19T03:33:10;97222.66;;;18.50;67.95
37142;BME280;23041;49.816;20.092;2022-08-19T03:35:43;97222.13;;;18.46;68.01
37142;BME280;23041;49.816;20.092;2022-08-19T03:38:10;97223.59;;;18.42;68.03
37142;BME280;23041;49.816;20.092;2022-08-19T03:40:37;97221.99;;;18.45;68.03
37142;BME280;23041;49.816;20.092;2022-08-19T03:43:03;97226.06;;;18.50;68.04
37142;BME280;23041;49.816;20.092;2022-08-19T03:45:31;97218.59;;;18.46;68.01
37142;BME280;23041;49.816;20.092;2022-08-19T03:47:57;97229.75;;;18.51;68.04
37142;BME280;23041;49.816;20.092;2022-08-19T03:50:24;97213.86;;;18.42;68.07
37142;BME280;23041;49.816;20.092;2022-08-19T03:52:51;97218.03;;;18.42;68.13
37142;BME280;23041;49.816;20.092;2022-08-19T03:55:20;97224.14;;;18.46;68.19
37142;BME280;23041;49.816;20.092;2022-08-19T03:57:46;97234.47;;;18.55;68.23
37142;BME280;23041;49.816;20.092;2022-08-19T04:00:14;97233.13;;;18.61;68.29
37142;BME280;23041;49.816;20.092;2022-08-19T04:02:42;97237.89;;;18.70;68.35
37142;BME280;23041;49.816;20.092;2022-08-19T04:05:09;97231.02;;;18.82;68.42
37142;BME280;23041;49.816;20.092;2022-08-19T04:07:35;97218.23;;;18.80;68.44
37142;BME280;23041;49.816;20.092;2022-08-19T04:10:03;97222.81;;;18.83;68.47
37142;BME280;23041;49.816;20.092;2022-08-19T04:12:31;97215.62;;;18.86;68.48
37142;BME280;23041;49.816;20.092;2022-08-19T04:14:58;97218.48;;;18.97;68.48
37142;BME280;23041;49.816;20.092;2022-08-19T04:17:24;97222.19;;;19.04;68.46
37142;BME280;23041;49.816;20.092;2022-08-19T04:19:52;97223.75;;;19.11;68.43
37142;BME280;23041;49.816;20.092;2022-08-19T04:22:18;97228.06;;;19.12;68.43
37142;BME280;23041;49.816;20.092;2022-08-19T04:24:44;97234.46;;;19.08;68.42
37142;BME280;23041;49.816;20.092;2022-08-19T04:27:11;97225.77;;;19.10;68.46
37142;BME280;23041;49.816;20.092;2022-08-19T04:29:37;97223.40;;;19.19;68.49
37142;BME280;23041;49.816;20.092;2022-08-19T04:32:05;97222.38;;;19.43;68.51
37142;BME280;23041;49.816;20.092;2022-08-19T04:34:31;97222.38;;;19.43;68.51
37142;BME280;23041;49.816;20.092;2022-08-19T04:36:58;97224.90;;;19.63;68.52
37142;BME280;23041;49.816;20.092;2022-08-19T04:39:30;97224.90;;;19.63;68.52
37142;BME280;23041;49.816;20.092;2022-08-19T04:42:14;97212.37;;;19.63;68.48
37142;BME280;23041;49.816;20.092;2022-08-19T04:45:00;97217.45;;;19.64;68.48
37142;BME280;23041;49.816;20.092;2022-08-19T04:47:28;97221.92;;;19.77;68.46
37142;BME280;23041;49.816;20.092;2022-08-19T04:49:55;97222.63;;;20.16;68.34
37142;BME280;23041;49.816;20.092;2022-08-19T04:52:22;97225.83;;;20.30;68.39
37142;BME280;23041;49.816;20.092;2022-08-19T04:54:48;97225.83;;;20.30;68.39
37142;BME280;23041;49.816;20.092;2022-08-19T04:57:14;97229.55;;;20.37;68.50
37142;BME280;23041;49.816;20.092;2022-08-19T04:59:41;97230.41;;;20.50;68.25
37142;BME280;23041;49.816;20.092;2022-08-19T05:02:08;97224.09;;;20.60;68.28
37142;BME280;23041;49.816;20.092;2022-08-19T05:04:35;97225.47;;;20.83;68.28
37142;BME280;23041;49.816;20.092;2022-08-19T05:07:05;97239.39;;;20.99;68.22
37142;BME280;23041;49.816;20.092;2022-08-19T05:09:32;97233.77;;;21.27;68.14
37142;BME280;23041;49.816;20.092;2022-08-19T05:11:58;97232.19;;;21.54;68.08
37142;BME280;23041;49.816;20.092;2022-08-19T05:14:25;97240.33;;;21.75;67.95
37142;BME280;23041;49.816;20.092;2022-08-19T05:16:52;97237.07;;;22.00;67.85
37142;BME280;23041;49.816;20.092;2022-08-19T05:19:19;97243.09;;;22.15;67.78
37142;BME280;23041;49.816;20.092;2022-08-19T05:22:04;97241.71;;;22.33;67.68
37142;BME280;23041;49.816;20.092;2022-08-19T05:24:49;97248.19;;;22.52;67.55
37142;BME280;23041;49.816;20.092;2022-08-19T05:27:15;97260.58;;;22.80;67.33
37142;BME280;23041;49.816;20.092;2022-08-19T05:29:42;97264.87;;;22.99;67.14
37142;BME280;23041;49.816;20.092;2022-08-19T05:32:08;97264.28;;;23.18;66.93
37142;BME280;23041;49.816;20.092;2022-08-19T05:34:36;97263.31;;;23.40;66.71
37142;BME280;23041;49.816;20.092;2022-08-19T05:37:04;97273.84;;;23.58;66.51
37142;BME280;23041;49.816;20.092;2022-08-19T05:39:33;97257.14;;;23.71;66.33
37142;BME280;23041;49.816;20.092;2022-08-19T05:42:04;97265.02;;;23.91;66.15
37142;BME280;23041;49.816;20.092;2022-08-19T05:44:34;97268.23;;;24.20;65.91
37142;BME280;23041;49.816;20.092;2022-08-19T05:47:05;97274.19;;;24.42;65.54
37142;BME280;23041;49.816;20.092;2022-08-19T05:49:32;97274.38;;;24.62;65.17
37142;BME280;23041;49.816;20.092;2022-08-19T05:52:02;97274.45;;;24.82;64.77
37142;BME280;23041;49.816;20.092;2022-08-19T05:54:31;97270.00;;;25.05;64.39
37142;BME280;23041;49.816;20.092;2022-08-19T05:57:00;97266.70;;;25.20;63.91
37142;BME280;23041;49.816;20.092;2022-08-19T05:59:26;97261.41;;;25.36;63.36
37142;BME280;23041;49.816;20.092;2022-08-19T06:01:54;97267.70;;;25.55;62.82
37142;BME280;23041;49.816;20.092;2022-08-19T06:04:23;97260.89;;;25.71;62.30
37142;BME280;23041;49.816;20.092;2022-08-19T06:06:52;97263.81;;;25.91;61.86
37142;BME280;23041;49.816;20.092;2022-08-19T06:09:19;97265.27;;;26.12;61.41
37142;BME280;23041;49.816;20.092;2022-08-19T06:11:52;97264.72;;;26.33;60.85
37142;BME280;23041;49.816;20.092;2022-08-19T06:14:23;97269.96;;;26.50;60.25
37142;BME280;23041;49.816;20.092;2022-08-19T06:16:50;97265.11;;;26.99;59.87
37142;BME280;23041;49.816;20.092;2022-08-19T06:19:19;97270.61;;;28.25;59.66
37142;BME280;23041;49.816;20.092;2022-08-19T06:21:48;97270.95;;;29.79;59.26
37142;BME280;23041;49.816;20.092;2022-08-19T06:24:19;97279.86;;;31.12;58.20
37142;BME280;23041;49.816;20.092;2022-08-19T06:26:49;97286.35;;;32.32;56.78
37142;BME280;23041;49.816;20.092;2022-08-19T06:29:18;97294.92;;;33.58;55.12
37142;BME280;23041;49.816;20.092;2022-08-19T06:31:47;97284.34;;;34.55;53.16
37142;BME280;23041;49.816;20.092;2022-08-19T06:34:17;97290.33;;;35.39;51.38
37142;BME280;23041;49.816;20.092;2022-08-19T06:36:47;97290.42;;;36.15;49.56
37142;BME280;23041;49.816;20.092;2022-08-19T06:39:17;97291.08;;;37.02;47.87
37142;BME280;23041;49.816;20.092;2022-08-19T06:41:48;97292.92;;;37.91;46.11
37142;BME280;23041;49.816;20.092;2022-08-19T06:44:20;97289.30;;;38.77;44.40
37142;BME280;23041;49.816;20.092;2022-08-19T06:46:48;97287.96;;;39.58;42.79
37142;BME280;23041;49.816;20.092;2022-08-19T06:49:16;97289.59;;;40.18;41.12
37142;BME280;23041;49.816;20.092;2022-08-19T06:51:43;97292.19;;;40.85;39.73
37142;BME280;23041;49.816;20.092;2022-08-19T06:54:13;97296.97;;;41.57;38.34
37142;BME280;23041;49.816;20.092;2022-08-19T06:56:40;97295.14;;;42.15;37.30
37142;BME280;23041;49.816;20.092;2022-08-19T06:59:16;97298.95;;;42.54;36.03
37142;BME280;23041;49.816;20.092;2022-08-19T07:01:46;97307.47;;;43.05;34.85
37142;BME280;23041;49.816;20.092;2022-08-19T07:04:17;97316.72;;;43.19;33.48
37142;BME280;23041;49.816;20.092;2022-08-19T07:06:46;97320.91;;;43.16;32.42
37142;BME280;23041;49.816;20.092;2022-08-19T07:09:15;97332.99;;;43.88;31.57
37142;BME280;23041;49.816;20.092;2022-08-19T07:11:47;97328.09;;;44.55;30.56
37142;BME280;23041;49.816;20.092;2022-08-19T07:14:16;97329.46;;;45.21;29.52
37142;BME280;23041;49.816;20.092;2022-08-19T07:16:45;97326.15;;;45.81;28.47
37142;BME280;23041;49.816;20.092;2022-08-19T07:19:16;97328.94;;;46.29;27.62
37142;BME280;23041;49.816;20.092;2022-08-19T07:21:43;97330.73;;;46.72;26.72
37142;BME280;23041;49.816;20.092;2022-08-19T07:24:09;97326.31;;;47.31;26.31
37142;BME280;23041;49.816;20.092;2022-08-19T07:26:40;97325.90;;;47.82;25.33
37142;BME280;23041;49.816;20.092;2022-08-19T07:29:09;97327.38;;;48.22;24.68
37142;BME280;23041;49.816;20.092;2022-08-19T07:31:36;97325.25;;;48.66;24.20
37142;BME280;23041;49.816;20.092;2022-08-19T07:34:05;97330.22;;;49.06;23.48
37142;BME280;23041;49.816;20.092;2022-08-19T07:36:35;97324.97;;;49.46;22.99
37142;BME280;23041;49.816;20.092;2022-08-19T07:39:06;97322.39;;;49.74;22.45
37142;BME280;23041;49.816;20.092;2022-08-19T07:41:35;97323.87;;;49.75;21.95
37142;BME280;23041;49.816;20.092;2022-08-19T07:44:03;97322.66;;;49.97;21.57
37142;BME280;23041;49.816;20.092;2022-08-19T07:46:32;97325.54;;;50.72;21.33
37142;BME280;23041;49.816;20.092;2022-08-19T07:48:59;97316.50;;;51.44;20.10
37142;BME280;23041;49.816;20.092;2022-08-19T07:51:26;97316.50;;;51.44;20.10
37142;BME280;23041;49.816;20.092;2022-08-19T07:53:53;97327.67;;;51.84;19.70
37142;BME280;23041;49.816;20.092;2022-08-19T07:56:20;97329.95;;;52.24;18.96
37142;BME280;23041;49.816;20.092;2022-08-19T07:58:50;97325.58;;;52.81;19.03
37142;BME280;23041;49.816;20.092;2022-08-19T08:01:20;97329.21;;;53.13;18.42
37142;BME280;23041;49.816;20.092;2022-08-19T08:03:50;97338.66;;;53.35;17.94
37142;BME280;23041;49.816;20.092;2022-08-19T08:06:35;97336.33;;;53.78;17.59
37142;BME280;23041;49.816;20.092;2022-08-19T08:09:24;97340.66;;;53.90;17.21
37142;BME280;23041;49.816;20.092;2022-08-19T08:11:55;97341.23;;;54.18;17.04
37142;BME280;23041;49.816;20.092;2022-08-19T08:14:29;97341.87;;;54.32;16.68
37142;BME280;23041;49.816;20.092;2022-08-19T08:16:58;97337.61;;;54.07;16.20
37142;BME280;23041;49.816;20.092;2022-08-19T08:19:26;97344.08;;;54.31;16.06
37142;BME280;23041;49.816;20.092;2022-08-19T08:21:55;97337.16;;;54.73;16.12
37142;BME280;23041;49.816;20.092;2022-08-19T08:24:24;97344.75;;;55.24;15.81
37142;BME280;23041;49.816;20.092;2022-08-19T08:26:52;97339.00;;;55.75;15.42
37142;BME280;23041;49.816;20.092;2022-08-19T08:29:18;97336.04;;;56.29;15.11
37142;BME280;23041;49.816;20.092;2022-08-19T08:31:46;97343.58;;;56.16;14.71
37142;BME280;23041;49.816;20.092;2022-08-19T08:34:14;97339.81;;;56.22;14.67
37142;BME280;23041;49.816;20.092;2022-08-19T08:36:43;97337.45;;;56.32;14.54
37142;BME280;23041;49.816;20.092;2022-08-19T08:39:13;97340.11;;;56.95;14.31
37142;BME280;23041;49.816;20.092;2022-08-19T08:47:14;97341.77;;;57.95;13.41
37142;BME280;23041;49.816;20.092;2022-08-19T08:49:55;97333.64;;;57.26;13.21
37142;BME280;23041;49.816;20.092;2022-08-19T08:52:31;97331.22;;;56.06;13.56
37142;BME280;23041;49.816;20.092;2022-08-19T08:55:11;97333.50;;;56.93;13.52
37142;BME280;23041;49.816;20.092;2022-08-19T08:57:53;97333.20;;;57.82;13.18
37142;BME280;23041;49.816;20.092;2022-08-19T09:00:34;97330.48;;;58.37;12.86
37142;BME280;23041;49.816;20.092;2022-08-19T09:03:20;97333.89;;;58.48;12.63
37142;BME280;23041;49.816;20.092;2022-08-19T09:06:06;97326.17;;;58.90;12.35
37142;BME280;23041;49.816;20.092;2022-08-19T09:09:01;97327.03;;;59.13;12.21
37142;BME280;23041;49.816;20.092;2022-08-19T09:11:47;97323.80;;;59.49;11.88
37142;BME280;23041;49.816;20.092;2022-08-19T09:14:39;97333.58;;;59.69;11.67
37142;BME280;23041;49.816;20.092;2022-08-19T09:17:05;97330.39;;;59.51;11.53
37142;BME280;23041;49.816;20.092;2022-08-19T09:19:36;97337.06;;;59.77;11.67
37142;BME280;23041;49.816;20.092;2022-08-19T09:22:23;97336.52;;;60.19;11.50
37142;BME280;23041;49.816;20.092;2022-08-19T09:24:50;97325.95;;;60.69;11.18
37142;BME280;23041;49.816;20.092;2022-08-19T09:27:19;97323.89;;;60.86;10.83
37142;BME280;23041;49.816;20.092;2022-08-19T09:29:46;97319.72;;;61.20;10.79
37142;BME280;23041;49.816;20.092;2022-08-19T09:32:17;97315.52;;;61.53;10.70
37142;BME280;23041;49.816;20.092;2022-08-19T09:34:44;97317.44;;;61.81;10.42
37142;BME280;23041;49.816;20.092;2022-08-19T09:37:11;97321.05;;;62.02;10.18
37142;BME280;23041;49.816;20.092;2022-08-19T09:39:38;97312.97;;;62.18;10.01
37142;BME280;23041;49.816;20.092;2022-08-19T09:42:07;97316.63;;;62.39;9.98
37142;BME280;23041;49.816;20.092;2022-08-19T09:44:39;97311.54;;;62.53;9.69
37142;BME280;23041;49.816;20.092;2022-08-19T09:47:08;97307.77;;;62.54;9.60
37142;BME280;23041;49.816;20.092;2022-08-19T09:49:35;97310.42;;;62.45;9.58
37142;BME280;23041;49.816;20.092;2022-08-19T09:52:03;97305.05;;;62.83;9.72
37142;BME280;23041;49.816;20.092;2022-08-19T09:54:30;97303.61;;;62.82;9.47
37142;BME280;23041;49.816;20.092;2022-08-19T09:56:58;97296.01;;;62.86;9.66
37142;BME280;23041;49.816;20.092;2022-08-19T09:59:28;97294.41;;;62.71;9.37
37142;BME280;23041;49.816;20.092;2022-08-19T10:01:55;97294.91;;;62.76;9.23
37142;BME280;23041;49.816;20.092;2022-08-19T10:04:21;97291.45;;;62.53;9.34
37142;BME280;23041;49.816;20.092;2022-08-19T10:06:50;97297.86;;;62.60;9.49
37142;BME280;23041;49.816;20.092;2022-08-19T10:09:17;97293.27;;;62.63;9.49
37142;BME280;23041;49.816;20.092;2022-08-19T10:11:45;97289.88;;;62.73;9.53
37142;BME280;23041;49.816;20.092;2022-08-19T10:14:15;97294.09;;;62.96;9.58
37142;BME280;23041;49.816;20.092;2022-08-19T10:16:43;97289.09;;;62.91;9.68
37142;BME280;23041;49.816;20.092;2022-08-19T10:19:09;97288.47;;;62.71;9.63
37142;BME280;23041;49.816;20.092;2022-08-19T10:21:36;97288.69;;;62.13;9.41
37142;BME280;23041;49.816;20.092;2022-08-19T10:24:04;97283.56;;;61.74;9.66
37142;BME280;23041;49.816;20.092;2022-08-19T10:26:34;97277.41;;;61.40;9.56
37142;BME280;23041;49.816;20.092;2022-08-19T10:29:04;97271.51;;;61.00;9.74
37142;BME280;23041;49.816;20.092;2022-08-19T10:31:33;97273.98;;;60.92;9.88
37142;BME280;23041;49.816;20.092;2022-08-19T10:34:00;97269.80;;;61.06;9.90
37142;BME280;23041;49.816;20.092;2022-08-19T10:36:30;97267.89;;;61.17;9.96
37142;BME280;23041;49.816;20.092;2022-08-19T10:39:00;97258.88;;;61.40;10.02
37142;BME280;23041;49.816;20.092;2022-08-19T10:41:31;97269.23;;;61.79;9.97
37142;BME280;23041;49.816;20.092;2022-08-19T10:46:42;97278.22;;;61.96;9.61
37142;BME280;23041;49.816;20.092;2022-08-19T10:49:11;97269.42;;;61.93;9.64
37142;BME280;23041;49.816;20.092;2022-08-19T10:51:39;97267.39;;;62.06;9.60
37142;BME280;23041;49.816;20.092;2022-08-19T10:54:24;97271.00;;;61.91;9.67
37142;BME280;23041;49.816;20.092;2022-08-19T10:56:52;97276.38;;;62.23;9.71
37142;BME280;23041;49.816;20.092;2022-08-19T10:59:25;97274.14;;;62.41;9.55
37142;BME280;23041;49.816;20.092;2022-08-19T11:02:00;97281.91;;;62.51;9.35
37142;BME280;23041;49.816;20.092;2022-08-19T11:04:27;97276.44;;;62.22;9.36
37142;BME280;23041;49.816;20.092;2022-08-19T11:06:54;97283.59;;;62.10;9.28
37142;BME280;23041;49.816;20.092;2022-08-19T11:09:24;97279.09;;;62.11;9.43
37142;BME280;23041;49.816;20.092;2022-08-19T11:11:52;97268.47;;;61.80;9.39
37142;BME280;23041;49.816;20.092;2022-08-19T11:14:20;97263.00;;;61.86;9.44
37142;BME280;23041;49.816;20.092;2022-08-19T11:16:47;97261.88;;;61.77;9.41
37142;BME280;23041;49.816;20.092;2022-08-19T11:19:15;97257.09;;;61.48;9.43
37142;BME280;23041;49.816;20.092;2022-08-19T11:21:47;97251.02;;;61.51;9.48
37142;BME280;23041;49.816;20.092;2022-08-19T11:24:19;97252.70;;;61.46;9.45
37142;BME280;23041;49.816;20.092;2022-08-19T11:26:48;97250.58;;;61.04;9.56
37142;BME280;23041;49.816;20.092;2022-08-19T11:29:18;97247.09;;;60.77;9.78
37142;BME280;23041;49.816;20.092;2022-08-19T11:31:48;97244.95;;;60.75;9.98
37142;BME280;23041;49.816;20.092;2022-08-19T11:34:19;97244.56;;;60.43;10.16
37142;BME280;23041;49.816;20.092;2022-08-19T11:36:46;97236.52;;;59.72;10.22
37142;BME280;23041;49.816;20.092;2022-08-19T11:39:17;97235.13;;;59.20;10.42
37142;BME280;23041;49.816;20.092;2022-08-19T11:41:44;97231.45;;;58.94;10.54
37142;BME280;23041;49.816;20.092;2022-08-19T11:44:11;97232.24;;;58.35;10.54
37142;BME280;23041;49.816;20.092;2022-08-19T11:46:41;97221.45;;;57.29;10.66
37142;BME280;23041;49.816;20.092;2022-08-19T11:49:14;97215.83;;;55.93;11.12
37142;BME280;23041;49.816;20.092;2022-08-19T11:51:42;97211.89;;;54.35;11.87
37142;BME280;23041;49.816;20.092;2022-08-19T11:54:10;97216.44;;;52.70;12.68
37142;BME280;23041;49.816;20.092;2022-08-19T11:56:37;97214.67;;;50.91;13.52
37142;BME280;23041;49.816;20.092;2022-08-19T11:59:05;97220.77;;;49.48;14.52
37142;BME280;23041;49.816;20.092;2022-08-19T12:01:31;97211.34;;;48.43;15.54
37142;BME280;23041;49.816;20.092;2022-08-19T12:03:58;97219.50;;;48.08;16.51
37142;BME280;23041;49.816;20.092;2022-08-19T12:06:28;97231.20;;;47.35;17.22
37142;BME280;23041;49.816;20.092;2022-08-19T12:09:01;97232.39;;;46.57;17.79
37142;BME280;23041;49.816;20.092;2022-08-19T12:11:30;97235.34;;;46.01;18.50
37142;BME280;23041;49.816;20.092;2022-08-19T12:13:56;97231.85;;;45.51;19.25
37142;BME280;23041;49.816;20.092;2022-08-19T12:16:25;97229.06;;;45.30;19.90
37142;BME280;23041;49.816;20.092;2022-08-19T12:18:53;97229.49;;;45.20;20.45
37142;BME280;23041;49.816;20.092;2022-08-19T12:21:23;97230.21;;;44.95;20.85
37142;BME280;23041;49.816;20.092;2022-08-19T12:23:55;97224.70;;;44.57;21.18
37142;BME280;23041;49.816;20.092;2022-08-19T12:26:25;97223.93;;;44.32;21.44
37142;BME280;23041;49.816;20.092;2022-08-19T12:28:53;97227.45;;;44.08;21.65
37142;BME280;23041;49.816;20.092;2022-08-19T12:31:19;97226.19;;;43.92;21.84
37142;BME280;23041;49.816;20.092;2022-08-19T12:33:46;97222.16;;;43.81;22.15
37142;BME280;23041;49.816;20.092;2022-08-19T12:36:15;97224.41;;;43.62;22.19
37142;BME280;23041;49.816;20.092;2022-08-19T12:38:43;97219.84;;;43.36;22.33
37142;BME280;23041;49.816;20.092;2022-08-19T12:41:13;97227.95;;;43.21;22.59
37142;BME280;23041;49.816;20.092;2022-08-19T12:43:41;97216.44;;;43.03;22.75
37142;BME280;23041;49.816;20.092;2022-08-19T12:46:09;97212.08;;;42.82;22.98
37142;BME280;23041;49.816;20.092;2022-08-19T12:48:36;97214.42;;;42.69;23.21
37142;BME280;23041;49.816;20.092;2022-08-19T12:51:12;97205.81;;;42.70;23.34
37142;BME280;23041;49.816;20.092;2022-08-19T12:53:36;97209.53;;;42.55;23.34
37142;BME280;23041;49.816;20.092;2022-08-19T12:56:03;97202.31;;;42.54;23.52
37142;BME280;23041;49.816;20.092;2022-08-19T12:58:31;97208.08;;;42.54;23.69
37142;BME280;23041;49.816;20.092;2022-08-19T13:00:59;97209.05;;;42.42;23.65
37142;BME280;23041;49.816;20.092;2022-08-19T13:03:28;97207.27;;;42.33;23.62
37142;BME280;23041;49.816;20.092;2022-08-19T13:05:55;97205.56;;;42.10;23.58
37142;BME280;23041;49.816;20.092;2022-08-19T13:08:22;97210.88;;;41.82;23.64
37142;BME280;23041;49.816;20.092;2022-08-19T13:10:49;97212.02;;;41.75;23.86